ADDS METAR Data INFO
IDs: Format: Raw Decoded Include TAF

Data at: 0008 UTC 27 Jun 2017

Region: TOP
KATL 262352Z 33011KT 10SM FEW070 FEW150 SCT250 27/12 A3006 RMK AO2 SLP171 T02720122 10300 20272 55007

KBOS 262354Z 20010KT 10SM FEW065 FEW110 23/13 A2994 RMK AO2 SLP139 T02280133 10267 20211 53005

KBWI 262354Z 15004KT 10SM SCT080 SCT100 25/09 A2998 RMK AO2 SLP151 T02500094 10278 20250 56010

KCLE 262351Z 20007KT 10SM FEW060 BKN085 BKN110 BKN250 18/09 A3002 RMK AO2 PK WND 26028/2259 LTG DSNT E TSE33 SLP163 CB DSNT E-SE AND DSNT S-SW 60000 T01830094 10233 20183 55002

KCLT 262352Z 21004KT 10SM FEW050 BKN180 26/13 A3004 RMK AO2 SLP166 T02610133 10289 20256 56011

KCVG 262352Z 27007KT 10SM BKN100 BKN120 20/09 A3008 RMK AO2 SLP178 T02000094 10239 20200 55008

KDCA 262352Z 17011KT 10SM SCT085 SCT250 26/13 A2999 RMK AO2 SLP154 T02610128 10289 20261 56010

KDEN 262353Z 04012KT 10SM FEW090 FEW220 31/03 A3011 RMK AO2 SLP116 T03060033 10317 20261 56017

KDFW 262353Z 11008KT 10SM BKN045 BKN250 OVC300 29/21 A2999 RMK AO2 SLP147 T02940206 10311 20278 56017

KDTW 262353Z 30012KT 10SM SCT065 BKN100 20/06 A2996 RMK AO2 SLP145 60000 T02000056 10228 20194 56010

KEWR 262351Z 25012KT 10SM FEW075 FEW250 25/07 A2997 RMK AO2 SLP148 T02500072 10278 20250 56002

KFLL 262353Z 14009KT 10SM FEW028 SCT250 29/23 A2999 RMK AO2 LTG DSNT W SLP155 T02890233 10322 20289 53003

KIAD 262352Z 20005KT 10SM SCT080 SCT250 25/09 A2999 RMK AO2 SLP152 T02500094 10272 20250 55010

KIAH 262353Z 13011KT 10SM FEW025 SCT045 SCT095 BKN150 BKN250 29/23 A3000 RMK AO2 SLP160 CB DSNT N-NE W-NW 60000 T02890228 10322 20272 55003 $

KJFK 262351Z 18016KT 10SM FEW070 FEW100 22/18 A2999 RMK AO2 SLP156 T02170178 10250 20217 56003

KLAS 262356Z 22017G26KT 10SM CLR 42/M21 A2979 RMK AO2 PK WND 23031/2309 SLP053 T04171206 10428 20383 58016

KLAX 262353Z 24010KT 10SM CLR 27/13 A2990 RMK AO2 SLP123 T02670128 10278 20244 58009

KLGA 262351Z 18011KT 10SM FEW095 23/16 A2997 RMK AO2 SLP148 T02330156 10272 20233 58003

KMCO 262353Z 09005KT 10SM FEW019 BKN070 BKN250 26/24 A3001 RMK AO2 SLP162 CB DSNT W MOV E 60000 T02610244 10306 20261 55004

KMDW 262353Z 34018G21KT 10SM SCT070 BKN095 21/06 A3004 RMK AO2 SLP167 CB DSNT S T02060061 10233 20206 53003

KMEM 262354Z 30005KT 10SM FEW060 SCT250 28/14 A3006 RMK AO2 SLP176 T02830144 10306 20283 56012 $

KMIA 262353Z 12008KT 10SM FEW023 SCT055 SCT130 SCT300 29/23 A3000 RMK AO2 LTG DSNT W AND NW SLP160 CB DSNT SE AND W-NW T02890233 10333 20289 53005

KMSP 262353Z 34005KT 10SM FEW070 SCT100 SCT250 21/06 A3010 RMK AO2 SLP192 CB DSNT NE-E T02110056 10228 20189 58005

KORD 262351Z 32018G23KT 10SM SCT070 BKN090 19/06 A3004 RMK AO2 SLP172 T01940061 10239 20189 53007

KPDX 262353Z 30007KT 10SM FEW060 SCT150 SCT250 25/14 A2993 RMK AO2 SLP134 60000 T02500139 10250 20183 58016

KPHL 262354Z 19007KT 10SM FEW075 25/09 A2999 RMK AO2 SLP154 T02500094 10278 20250 58008 $

KPHX 262351Z 26011G16KT 10SM FEW120 FEW200 44/07 A2975 RMK AO2 SLP051 T04390067 10444 20372 56026

KPIT 262351Z 25005KT 10SM FEW046 FEW110 OVC200 19/09 A3002 RMK AO2 SLP170 T01940094 10228 20194 56002

KSAN 262351Z VRB06KT 10SM FEW100 28/14 A2991 RMK AO2 SLP130 T02780139 10283 20194 58008

KSEA 262353Z 22010KT 10SM FEW030 SCT170 BKN250 21/12 A2996 RMK AO2 SLP150 ACC SE AND NW-N 60000 T02110122 10222 20178 58004

KSFO 262356Z 28018G23KT 10SM FEW021 21/12 A3001 RMK AO2 SLP161 T02110117 10228 20194 58010

KSLC 262354Z 15007KT 100V160 10SM FEW095 FEW130 SCT180 BKN230 37/M02 A2988 RMK AO2 SLP053 VIRGA T03671017 10378 20322 58027

KSTL 262351Z 25009KT 10SM SCT120 SCT200 22/11 A3010 RMK AO2 SLP187 60000 T02220111 10272 20222 56014

KTPA 262353Z 31004KT 10SM FEW020 OVC100 29/22 A3001 RMK AO2 SLP160 T02940222 10311 20272 55004 $


Page loaded:  00:08 UTC  |   05:08 PM Pacific  |   06:08 PM Mountain  |   07:08 PM Central  |   08:08 PM Eastern

 

ADVISORIES

FORECASTS

FORECASTS

OBSERVATIONS

USER TOOLS

ABOUT US